地図

経路データ

SID SEASON NUMBER BASIN SUBBASIN NAME ISO_TIME NATURE LAT LON WMO_WIND WMO_PRES WMO_AGENCY TRACK_TYPE DIST2LAND LANDFALL IFLAG USA_AGENCY USA_ATCF_ID USA_LAT USA_LON USA_RECORD USA_STATUS USA_WIND USA_PRES USA_SSHS USA_R34_NE USA_R34_SE USA_R34_SW USA_R34_NW USA_R50_NE USA_R50_SE USA_R50_SW USA_R50_NW USA_R64_NE USA_R64_SE USA_R64_SW USA_R64_NW USA_POCI USA_ROCI USA_RMW USA_EYE TOKYO_LAT TOKYO_LON TOKYO_GRADE TOKYO_WIND TOKYO_PRES TOKYO_R50_DIR TOKYO_R50_LONG TOKYO_R50_SHORT TOKYO_R30_DIR TOKYO_R30_LONG TOKYO_R30_SHORT TOKYO_LAND CMA_LAT CMA_LON CMA_CAT CMA_WIND CMA_PRES HKO_LAT HKO_LON HKO_CAT HKO_WIND HKO_PRES NEWDELHI_LAT NEWDELHI_LON NEWDELHI_GRADE NEWDELHI_WIND NEWDELHI_PRES NEWDELHI_CI NEWDELHI_DP NEWDELHI_POCI REUNION_LAT REUNION_LON REUNION_TYPE REUNION_WIND REUNION_PRES REUNION_TNUM REUNION_CI REUNION_RMW REUNION_R34_NE REUNION_R34_SE REUNION_R34_SW REUNION_R34_NW REUNION_R50_NE REUNION_R50_SE REUNION_R50_SW REUNION_R50_NW REUNION_R64_NE REUNION_R64_SE REUNION_R64_SW REUNION_R64_NW BOM_LAT BOM_LON BOM_TYPE BOM_WIND BOM_PRES BOM_TNUM BOM_CI BOM_RMW BOM_R34_NE BOM_R34_SE BOM_R34_SW BOM_R34_NW BOM_R50_NE BOM_R50_SE BOM_R50_SW BOM_R50_NW BOM_R64_NE BOM_R64_SE BOM_R64_SW BOM_R64_NW BOM_ROCI BOM_POCI BOM_EYE BOM_POS_METHOD BOM_PRES_METHOD NADI_LAT NADI_LON NADI_CAT NADI_WIND NADI_PRES WELLINGTON_LAT WELLINGTON_LON WELLINGTON_WIND WELLINGTON_PRES DS824_LAT DS824_LON DS824_STAGE DS824_WIND DS824_PRES TD9636_LAT TD9636_LON TD9636_STAGE TD9636_WIND TD9636_PRES TD9635_LAT TD9635_LON TD9635_WIND TD9635_PRES TD9635_ROCI NEUMANN_LAT NEUMANN_LON NEUMANN_CLASS NEUMANN_WIND NEUMANN_PRES MLC_LAT MLC_LON MLC_CLASS MLC_WIND MLC_PRES USA_GUST BOM_GUST BOM_GUST_PER REUNION_GUST REUNION_GUST_PER USA_SEAHGT USA_SEARAD_NE USA_SEARAD_SE USA_SEARAD_SW USA_SEARAD_NW STORM_SPEED STORM_DIR
1914189N15145 1914 18 WP MM NOT_NAMED 1914-07-08 10:00:00 NR 15.4000 144.600 main 1972 1972 __________O___ -1 15.4000 144.600 7 7 270
1914189N15145 1914 18 WP MM NOT_NAMED 1914-07-08 12:00:00 NR 15.3999 144.370 main 1975 1975 __________P___ -1 15.3999 144.370 7 7 270
1914189N15145 1914 18 WP MM NOT_NAMED 1914-07-08 15:00:00 NR 15.3997 144.004 main 1981 1981 __________P___ -1 15.3997 144.004 7 8 270
1914189N15145 1914 18 WP MM NOT_NAMED 1914-07-08 18:00:00 NR 15.3997 143.588 main 1987 1934 __________P___ -1 15.3997 143.588 7 9 270
1914189N15145 1914 18 WP MM NOT_NAMED 1914-07-08 21:00:00 NR 15.3999 143.090 main 1934 1913 __________P___ -1 15.3999 143.090 7 10 270
1914189N15145 1914 18 WP MM NOT_NAMED 1914-07-08 22:00:00 NR 15.4000 142.900 main 1913 1870 __________O___ -1 15.4000 142.900 3 12 270
1914189N15145 1914 18 WP MM NOT_NAMED 1914-07-09 00:00:00 NR 15.4002 142.482 main 1870 1796 __________P___ -1 15.4002 142.482 3 13 270
1914189N15145 1914 18 WP MM NOT_NAMED 1914-07-09 03:00:00 NR 15.4002 141.773 main 1796 1712 __________P___ -1 15.4002 141.773 3 14 270
1914189N15145 1914 18 WP MM NOT_NAMED 1914-07-09 06:00:00 NR 15.4000 140.994 main 1712 1627 __________P___ -1 15.4000 140.994 3 15 270
1914189N15145 1914 18 WP MM NOT_NAMED 1914-07-09 09:00:00 NR 15.3999 140.176 main 1627 1596 __________P___ -1 15.3999 140.176 3 16 270
1914189N15145 1914 18 WP MM NOT_NAMED 1914-07-09 10:00:00 NR 15.4000 139.900 main 1596 1543 __________O___ -1 15.4000 139.900 4 16 270
1914189N15145 1914 18 WP MM NOT_NAMED 1914-07-09 12:00:00 NR 15.4051 139.359 main 1543 1449 __________P___ -1 15.4051 139.359 4 16 271
1914189N15145 1914 18 WP MM NOT_NAMED 1914-07-09 15:00:00 NR 15.4130 138.529 main 1449 1365 __________P___ -1 15.4130 138.529 4 16 270
1914189N15145 1914 18 WP MM NOT_NAMED 1914-07-09 18:00:00 NR 15.4156 137.693 main 1365 1282 __________P___ -1 15.4156 137.693 4 16 270
1914189N15145 1914 18 WP MM NOT_NAMED 1914-07-09 21:00:00 NR 15.4066 136.869 main 1282 1251 __________P___ -1 15.4066 136.869 4 16 269
1914189N15145 1914 18 WP MM NOT_NAMED 1914-07-09 22:00:00 NR 15.4000 136.600 main 1251 1199 __________O___ -1 15.4000 136.600 4 15 266
1914189N15145 1914 18 WP MM NOT_NAMED 1914-07-10 00:00:00 NR 15.3539 136.072 main 1199 1114 __________P___ -1 15.3539 136.072 4 15 264
1914189N15145 1914 18 WP MM NOT_NAMED 1914-07-10 03:00:00 NR 15.2722 135.298 main 1114 1039 __________P___ -1 15.2722 135.298 4 15 264
1914189N15145 1914 18 WP MM NOT_NAMED 1914-07-10 06:00:00 NR 15.2057 134.551 main 1039 957 __________P___ -1 15.2057 134.551 4 14 267
1914189N15145 1914 18 WP MM NOT_NAMED 1914-07-10 09:00:00 NR 15.1887 133.832 main 957 937 __________P___ -1 15.1887 133.832 4 14 270
1914189N15145 1914 18 WP MM NOT_NAMED 1914-07-10 10:00:00 NR 15.2000 133.600 main 937 887 __________O___ -1 15.2000 133.600 4 14 275
1914189N15145 1914 18 WP MM NOT_NAMED 1914-07-10 12:00:00 NR 15.2437 133.136 main 887 832 __________P___ -1 15.2437 133.136 4 13 279
1914189N15145 1914 18 WP MM NOT_NAMED 1914-07-10 15:00:00 NR 15.3661 132.465 main 836 779 __________P___ -1 15.3661 132.465 4 13 284
1914189N15145 1914 18 WP MM NOT_NAMED 1914-07-10 18:00:00 NR 15.5538 131.821 main 779 735 __________P___ -1 15.5538 131.821 4 13 290
1914189N15145 1914 18 WP MM NOT_NAMED 1914-07-10 21:00:00 NR 15.8036 131.202 main 735 723 __________P___ -1 15.8036 131.202 4 13 294
1914189N15145 1914 18 WP MM NOT_NAMED 1914-07-10 22:00:00 NR 15.9000 131.000 main 723 695 __________O___ -1 15.9000 131.000 4 13 295
1914189N15145 1914 18 WP MM NOT_NAMED 1914-07-11 00:00:00 NR 16.0806 130.576 main 702 663 __________P___ -1 16.0806 130.576 4 13 297
1914189N15145 1914 18 WP MM NOT_NAMED 1914-07-11 03:00:00 NR 16.4017 129.958 main 663 621 __________P___ -1 16.4017 129.958 4 14 302
1914189N15145 1914 18 WP MM NOT_NAMED 1914-07-11 06:00:00 NR 16.7855 129.379 main 626 607 __________P___ -1 16.7855 129.379 4 13 308
1914189N15145 1914 18 WP MM NOT_NAMED 1914-07-11 09:00:00 NR 17.2350 128.858 main 607 604 __________P___ -1 17.2350 128.858 4 13 313
1914189N15145 1914 18 WP MM NOT_NAMED 1914-07-11 10:00:00 NR 17.4000 128.700 main 604 603 __________O___ -1 17.4000 128.700 4 14 322
1914189N15145 1914 18 WP MM NOT_NAMED 1914-07-11 12:00:00 NR 17.7635 128.423 main 610 608 __________P___ -1 17.7635 128.423 4 14 328
1914189N15145 1914 18 WP MM NOT_NAMED 1914-07-11 15:00:00 NR 18.3666 128.064 main 612 572 __________P___ -1 18.3666 128.064 4 14 332
1914189N15145 1914 18 WP MM NOT_NAMED 1914-07-11 18:00:00 NR 18.9973 127.741 main 572 552 __________P___ -1 18.9973 127.741 4 14 334
1914189N15145 1914 18 WP MM NOT_NAMED 1914-07-11 21:00:00 NR 19.6087 127.415 main 552 545 __________P___ -1 19.6087 127.415 4 14 333
1914189N15145 1914 18 WP MM NOT_NAMED 1914-07-11 22:00:00 NR 19.8000 127.300 main 548 528 __________O___ -1 19.8000 127.300 4 13 325
1914189N15145 1914 18 WP MM NOT_NAMED 1914-07-12 00:00:00 NR 20.1395 127.026 main 528 513 __________P___ -1 20.1395 127.026 4 13 321
1914189N15145 1914 18 WP MM NOT_NAMED 1914-07-12 03:00:00 NR 20.6111 126.595 main 513 501 __________P___ -1 20.6111 126.595 4 12 318
1914189N15145 1914 18 WP MM NOT_NAMED 1914-07-12 06:00:00 NR 21.0485 126.159 main 501 477 __________P___ -1 21.0485 126.159 4 12 317
1914189N15145 1914 18 WP MM NOT_NAMED 1914-07-12 09:00:00 NR 21.4641 125.735 main 477 463 __________P___ -1 21.4641 125.735 4 11 317
1914189N15145 1914 18 WP MM NOT_NAMED 1914-07-12 10:00:00 NR 21.6000 125.600 main 463 422 __________O___ -1 21.6000 125.600 4 11 319
1914189N15145 1914 18 WP MM NOT_NAMED 1914-07-12 12:00:00 NR 21.8910 125.339 main 422 379 __________P___ -1 21.8910 125.339 4 11 321
1914189N15145 1914 18 WP MM NOT_NAMED 1914-07-12 15:00:00 NR 22.3153 124.966 main 379 330 __________P___ -1 22.3153 124.966 4 11 321
1914189N15145 1914 18 WP MM NOT_NAMED 1914-07-12 18:00:00 NR 22.7168 124.619 main 330 289 __________P___ -1 22.7168 124.619 4 10 321
1914189N15145 1914 18 WP MM NOT_NAMED 1914-07-12 21:00:00 NR 23.0858 124.300 main 289 275 __________P___ -1 23.0858 124.300 4 9 321
1914189N15145 1914 18 WP MM NOT_NAMED 1914-07-12 22:00:00 NR 23.2000 124.200 main 275 246 __________O___ -1 23.2000 124.200 4 8 321
1914189N15145 1914 18 WP MM NOT_NAMED 1914-07-13 00:00:00 NR 23.4115 124.017 main 246 212 __________P___ -1 23.4115 124.017 4 8 322
1914189N15145 1914 18 WP MM NOT_NAMED 1914-07-13 03:00:00 NR 23.6974 123.770 main 212 171 __________P___ -1 23.6974 123.770 4 7 321
1914189N15145 1914 18 WP MM NOT_NAMED 1914-07-13 06:00:00 NR 23.9598 123.534 main 171 145 __________P___ -1 23.9598 123.534 4 7 320
1914189N15145 1914 18 WP MM NOT_NAMED 1914-07-13 09:00:00 NR 24.2143 123.288 main 145 133 __________P___ -1 24.2143 123.288 4 7 318
1914189N15145 1914 18 WP MM NOT_NAMED 1914-07-13 10:00:00 NR 24.3000 123.200 main 133 111 __________O___ -1 24.3000 123.200 4 7 318
1914189N15145 1914 18 WP MM NOT_NAMED 1914-07-13 12:00:00 NR 24.4909 123.016 main 111 74 __________P___ -1 24.4909 123.016 4 8 318
1914189N15145 1914 18 WP MM NOT_NAMED 1914-07-13 15:00:00 NR 24.7775 122.722 main 74 40 __________P___ -1 24.7775 122.722 4 8 315
1914189N15145 1914 18 WP MM NOT_NAMED 1914-07-13 18:00:00 NR 25.0564 122.397 main 41 24 __________P___ -1 25.0564 122.397 4 8 311
1914189N15145 1914 18 WP MM NOT_NAMED 1914-07-13 21:00:00 NR 25.3181 122.032 main 33 33 __________P___ -1 25.3181 122.032 4 8 307
1914189N15145 1914 18 WP MM NOT_NAMED 1914-07-13 22:00:00 NR 25.4000 121.900 main 37 30 __________O___ -1 25.4000 121.900 4 9 303
1914189N15145 1914 18 WP MM NOT_NAMED 1914-07-14 00:00:00 NR 25.5610 121.618 main 44 44 __________P___ -1 25.5610 121.618 4 9 300
1914189N15145 1914 18 WP MM NOT_NAMED 1914-07-14 03:00:00 NR 25.7839 121.156 main 69 73 __________P___ -1 25.7839 121.156 4 10 296
1914189N15145 1914 18 WP MM NOT_NAMED 1914-07-14 06:00:00 NR 25.9813 120.666 main 89 41 __________P___ -1 25.9813 120.666 4 10 292
1914189N15145 1914 18 WP MM NOT_NAMED 1914-07-14 09:00:00 NR 26.1504 120.166 main 41 22 __________P___ -1 26.1504 120.166 4 10 290
1914189N15145 1914 18 WP MM NOT_NAMED 1914-07-14 10:00:00 NR 26.2000 120.000 main 22 0 __________O___ -1 26.2000 120.000 4 9 287
1914189N15145 1914 18 WP MM NOT_NAMED 1914-07-14 12:00:00 NR 26.2889 119.673 main 0 0 __________P___ -1 26.2889 119.673 4 9 286
1914189N15145 1914 18 WP MM NOT_NAMED 1914-07-14 15:00:00 NR 26.4007 119.193 main 0 0 __________P___ -1 26.4007 119.193 4 9 283
1914189N15145 1914 18 WP MM NOT_NAMED 1914-07-14 18:00:00 NR 26.4933 118.722 main 0 0 __________P___ -1 26.4933 118.722 4 9 282
1914189N15145 1914 18 WP MM NOT_NAMED 1914-07-14 21:00:00 NR 26.5743 118.255 main 0 0 __________P___ -1 26.5743 118.255 4 8 281
1914189N15145 1914 18 WP MM NOT_NAMED 1914-07-14 22:00:00 NR 26.6000 118.100 main 0 __________O___ -1 26.6000 118.100 4 8 281

デジタル台風データ・検索

IBTrACS Databaseについて

本データベースは、米国NOAAが公開する1842年以降の世界の熱帯低気圧のベストトラックデータアーカイブInternational Best Track Archive for Climate Stewardship (IBTrACS)を、ウェブで閲覧しやすい形式に変換したものです。

最終更新日:2021-12-06